createdAt,value
2018-09-17T00:01:26.195Z,98856.95
2018-09-17T00:03:38.395Z,98848.07
2018-09-17T00:05:50.615Z,98850.21
2018-09-17T00:08:02.917Z,98852.35
2018-09-17T00:10:15.099Z,98851.25
2018-09-17T00:12:27.413Z,98850.41
2018-09-17T00:14:39.742Z,98856.48
2018-09-17T00:16:51.962Z,98853.86
2018-09-17T00:19:04.253Z,98845.11
2018-09-17T00:21:16.474Z,98854.07
2018-09-17T00:23:28.696Z,98846.47
2018-09-17T00:25:40.861Z,98850.95
2018-09-17T00:27:53.185Z,98847.81
2018-09-17T00:30:05.451Z,98848.33
2018-09-17T00:32:17.710Z,98847.18
2018-09-17T00:34:29.883Z,98855.02
2018-09-17T00:36:42.075Z,98851.30
2018-09-17T00:38:54.290Z,98847.77
2018-09-17T00:41:06.499Z,98848.92
2018-09-17T00:43:18.697Z,98846.89
2018-09-17T00:45:30.876Z,98843.09
2018-09-17T00:47:43.108Z,98846.37
2018-09-17T00:49:55.322Z,98840.70
2018-09-17T00:52:07.534Z,98844.06
2018-09-17T00:54:20.223Z,98846.40
2018-09-17T00:56:32.451Z,98844.73
2018-09-17T00:58:44.677Z,98843.31
2018-09-17T01:00:56.922Z,98840.61
2018-09-17T01:03:09.118Z,98843.97
2018-09-17T01:05:21.355Z,98849.55
2018-09-17T01:07:33.600Z,98837.08
2018-09-17T01:09:45.842Z,98843.69
2018-09-17T01:11:58.056Z,98839.77
2018-09-17T01:14:10.268Z,98842.66
2018-09-17T01:16:22.434Z,98842.47
2018-09-17T01:18:34.694Z,98846.58
2018-09-17T01:20:46.937Z,98847.78
2018-09-17T01:22:59.146Z,98845.47
2018-09-17T01:25:11.335Z,98848.67
2018-09-17T01:27:23.527Z,98843.24
2018-09-17T01:29:35.732Z,98848.41
2018-09-17T01:31:47.925Z,98845.45
2018-09-17T01:34:00.147Z,98845.45
2018-09-17T01:36:12.352Z,98851.12
2018-09-17T01:38:24.570Z,98844.70
2018-09-17T01:40:36.779Z,98849.81
2018-09-17T01:42:48.951Z,98849.63
2018-09-17T01:45:01.151Z,98847.41
2018-09-17T01:47:13.358Z,98846.45
2018-09-17T01:49:25.577Z,98844.40
2018-09-17T01:51:37.767Z,98847.95
2018-09-17T01:53:49.943Z,98841.98
2018-09-17T01:56:02.172Z,98841.80
2018-09-17T01:58:14.327Z,98840.78
2018-09-17T02:00:26.579Z,98842.64
2018-09-17T02:02:38.754Z,98843.22
2018-09-17T02:04:50.978Z,98845.72
2018-09-17T02:07:03.186Z,98846.85
2018-09-17T02:09:15.380Z,98839.61
2018-09-17T02:11:27.598Z,98840.80
2018-09-17T02:13:39.834Z,98841.27
2018-09-17T02:15:52.083Z,98842.86
2018-09-17T02:18:04.298Z,98854.03
2018-09-17T02:20:16.489Z,98851.53
2018-09-17T02:22:28.682Z,98853.37
2018-09-17T02:24:40.938Z,98853.73
2018-09-17T02:26:53.146Z,98852.17
2018-09-17T02:29:05.578Z,98854.95
2018-09-17T02:31:17.903Z,98856.91
2018-09-17T02:33:30.102Z,98853.99
2018-09-17T02:35:42.334Z,98859.50
2018-09-17T02:37:54.531Z,98859.39
2018-09-17T02:40:11.330Z,98855.00
2018-09-17T02:42:23.523Z,98859.52
2018-09-17T02:44:36.070Z,98864.39
2018-09-17T02:46:48.299Z,98866.72
2018-09-17T02:49:00.485Z,98863.83
2018-09-17T02:51:13.289Z,98864.19
2018-09-17T02:53:25.524Z,98867.85
2018-09-17T02:55:37.747Z,98870.94
2018-09-17T02:57:50.040Z,98862.17
2018-09-17T03:00:02.270Z,98865.91
2018-09-17T03:02:15.612Z,98861.23
2018-09-17T03:04:27.962Z,98868.43
2018-09-17T03:06:40.160Z,98867.70
2018-09-17T03:08:52.403Z,98866.01
2018-09-17T03:11:04.639Z,98876.73
2018-09-17T03:13:16.930Z,98867.05
2018-09-17T03:15:40.668Z,98862.28
2018-09-17T03:17:52.871Z,98866.12
2018-09-17T03:20:05.125Z,98868.15
2018-09-17T03:22:17.328Z,98866.84
2018-09-17T03:24:29.611Z,98867.42
2018-09-17T03:26:41.751Z,98862.93
2018-09-17T03:28:53.978Z,98871.22
2018-09-17T03:31:06.182Z,98874.02
2018-09-17T03:33:18.394Z,98874.48
2018-09-17T03:35:30.609Z,98876.62
2018-09-17T03:37:42.804Z,98868.33
2018-09-17T03:39:57.234Z,98876.91
2018-09-17T03:42:09.414Z,98883.91
2018-09-17T03:44:21.631Z,98880.46
2018-09-17T03:46:33.927Z,98892.93
2018-09-17T03:48:46.242Z,98890.32
2018-09-17T03:50:59.010Z,98894.98
2018-09-17T03:53:11.198Z,98888.17
2018-09-17T03:55:23.414Z,98892.66
2018-09-17T03:57:35.655Z,98894.61
2018-09-17T03:59:47.887Z,98896.09
2018-09-17T04:02:00.091Z,98897.87
2018-09-17T04:04:12.342Z,98900.36
2018-09-17T04:06:24.551Z,98904.17
2018-09-17T04:08:36.765Z,98902.43
2018-09-17T04:10:48.965Z,98905.59
2018-09-17T04:13:01.186Z,98898.37
2018-09-17T04:15:13.383Z,98900.11
2018-09-17T04:17:25.543Z,98908.80
2018-09-17T04:19:37.835Z,98907.11
2018-09-17T04:21:50.029Z,98903.02
2018-09-17T04:24:02.245Z,98906.38
2018-09-17T04:26:14.477Z,98905.14
2018-09-17T04:28:26.690Z,98908.69
2018-09-17T04:30:38.943Z,98911.47
2018-09-17T04:32:51.671Z,98919.41
2018-09-17T04:35:05.148Z,98919.19
2018-09-17T04:37:17.333Z,98914.91
2018-09-17T04:39:29.655Z,98916.78
2018-09-17T04:41:41.983Z,98916.77
2018-09-17T04:43:54.175Z,98911.72
2018-09-17T04:46:06.442Z,98912.83
2018-09-17T04:48:18.658Z,98914.32
2018-09-17T04:50:30.850Z,98916.36
2018-09-17T04:52:43.056Z,98921.97
2018-09-17T04:54:55.239Z,98926.72
2018-09-17T04:57:07.466Z,98918.89
2018-09-17T04:59:19.658Z,98921.97
2018-09-17T05:01:31.891Z,98924.95
2018-09-17T05:03:44.102Z,98922.98
2018-09-17T05:05:56.299Z,98920.55
2018-09-17T05:08:08.507Z,98921.05
2018-09-17T05:10:20.825Z,98917.78
2018-09-17T05:12:33.042Z,98918.25
2018-09-17T05:14:45.251Z,98919.66
2018-09-17T05:16:57.499Z,98923.74
2018-09-17T05:19:09.686Z,98917.77
2018-09-17T05:21:21.885Z,98924.41
2018-09-17T05:23:34.098Z,98935.13
2018-09-17T05:25:46.290Z,98937.27
2018-09-17T05:27:58.535Z,98932.13
2018-09-17T05:30:10.736Z,98932.99
2018-09-17T05:32:23.015Z,98933.25
2018-09-17T05:34:35.187Z,98930.80
2018-09-17T05:36:47.458Z,98930.25
2018-09-17T05:38:59.693Z,98930.09
2018-09-17T05:41:13.268Z,98929.55
2018-09-17T05:43:25.488Z,98929.45
2018-09-17T05:45:37.690Z,98936.38
2018-09-17T05:47:49.986Z,98941.32
2018-09-17T05:50:02.215Z,98939.84
2018-09-17T05:52:14.403Z,98946.66
2018-09-17T05:54:26.634Z,98950.35
2018-09-17T05:56:38.921Z,98952.41
2018-09-17T05:58:51.202Z,98954.19
2018-09-17T06:01:03.384Z,98955.98
2018-09-17T06:03:15.648Z,98949.86
2018-09-17T06:05:27.930Z,98946.63
2018-09-17T06:07:40.130Z,98943.20
2018-09-17T06:09:52.387Z,98942.41
2018-09-17T06:12:04.592Z,98936.25
2018-09-17T06:14:16.832Z,98935.52
2018-09-17T06:16:29.124Z,98938.06
2018-09-17T06:18:41.432Z,98938.58
2018-09-17T06:20:53.625Z,98945.15
2018-09-17T06:23:05.825Z,98937.97
2018-09-17T06:25:18.041Z,98934.85
2018-09-17T06:27:30.222Z,98932.58
2018-09-17T06:29:42.503Z,98937.75
2018-09-17T06:31:54.682Z,98928.91
2018-09-17T06:34:07.223Z,98929.58
2018-09-17T06:36:19.448Z,98935.46
2018-09-17T06:38:31.608Z,98936.69
2018-09-17T06:40:43.811Z,98941.79
2018-09-17T06:42:56.083Z,98938.91
2018-09-17T06:45:08.320Z,98934.45
2018-09-17T06:47:20.614Z,98937.39
2018-09-17T06:49:32.842Z,98933.09
2018-09-17T06:51:45.020Z,98927.84
2018-09-17T06:53:57.225Z,98928.25
2018-09-17T06:56:09.428Z,98920.17
2018-09-17T06:58:21.587Z,98931.52
2018-09-17T07:00:33.835Z,98925.49
2018-09-17T07:02:46.040Z,98926.00
2018-09-17T07:04:58.255Z,98923.70
2018-09-17T07:07:10.453Z,98924.41
2018-09-17T07:09:22.642Z,98930.69
2018-09-17T07:11:34.831Z,98937.88
2018-09-17T07:13:47.052Z,98937.95
2018-09-17T07:15:59.263Z,98935.41
2018-09-17T07:18:11.472Z,98939.56
2018-09-17T07:20:23.660Z,98938.98
2018-09-17T07:22:35.949Z,98933.84
2018-09-17T07:24:48.160Z,98937.11
2018-09-17T07:27:00.391Z,98941.06
2018-09-17T07:29:12.637Z,98939.05
2018-09-17T07:31:24.863Z,98940.84
2018-09-17T07:33:37.050Z,98937.33
2018-09-17T07:35:49.267Z,98939.38
2018-09-17T07:38:01.476Z,98931.84
2018-09-17T07:40:13.715Z,98929.25
2018-09-17T07:42:25.950Z,98933.83
2018-09-17T07:44:38.158Z,98930.38
2018-09-17T07:46:50.446Z,98927.30
2018-09-17T07:49:02.794Z,98932.00
2018-09-17T07:51:14.999Z,98923.98
2018-09-17T07:53:27.219Z,98920.61
2018-09-17T07:55:39.448Z,98925.13
2018-09-17T07:57:51.710Z,98924.03
2018-09-17T08:00:04.111Z,98923.55
2018-09-17T08:02:16.312Z,98918.80
2018-09-17T08:04:28.776Z,98922.98
2018-09-17T08:06:41.018Z,98921.66
2018-09-17T08:08:53.223Z,98925.63
2018-09-17T08:11:05.495Z,98918.17
2018-09-17T08:13:17.735Z,98921.78
2018-09-17T08:15:29.919Z,98922.78
2018-09-17T08:17:42.128Z,98921.98
2018-09-17T08:19:54.390Z,98922.66
2018-09-17T08:22:06.631Z,98918.23
2018-09-17T08:24:18.841Z,98924.55
2018-09-17T08:26:31.071Z,98921.39
2018-09-17T08:28:43.279Z,98920.73
2018-09-17T08:30:55.487Z,98917.08
2018-09-17T08:33:07.755Z,98917.89
2018-09-17T08:35:19.958Z,98919.05
2018-09-17T08:37:32.223Z,98917.70
2018-09-17T08:39:44.450Z,98920.69
2018-09-17T08:41:56.606Z,98917.06
2018-09-17T08:44:09.731Z,98918.73
2018-09-17T08:46:21.938Z,98916.39
2018-09-17T08:48:34.166Z,98913.41
2018-09-17T08:50:46.410Z,98905.59
2018-09-17T08:52:58.633Z,98914.38
2018-09-17T08:55:15.364Z,98904.70
2018-09-17T08:57:30.558Z,98901.08
2018-09-17T08:59:50.340Z,98905.36
2018-09-17T09:02:08.262Z,98894.53
2018-09-17T09:04:31.063Z,98899.46
2018-09-17T09:06:49.049Z,98897.53
2018-09-17T09:09:01.859Z,98894.08
2018-09-17T09:11:21.485Z,98891.09
2018-09-17T09:13:34.221Z,98895.72
2018-09-17T09:15:46.435Z,98888.87
2018-09-17T09:17:58.657Z,98886.82
2018-09-17T09:20:10.896Z,98887.13
2018-09-17T09:22:23.159Z,98880.98
2018-09-17T09:24:36.112Z,98882.95
2018-09-17T09:26:48.330Z,98874.98
2018-09-17T09:29:00.557Z,98870.95
2018-09-17T09:31:12.780Z,98868.39
2018-09-17T09:33:24.976Z,98864.51
2018-09-17T09:35:37.220Z,98860.19
2018-09-17T09:37:49.493Z,98857.74
2018-09-17T09:40:01.730Z,98857.91
2018-09-17T09:42:13.967Z,98857.59
2018-09-17T09:44:26.175Z,98852.42
2018-09-17T09:46:38.411Z,98853.34
2018-09-17T09:48:50.578Z,98851.59
2018-09-17T09:51:02.814Z,98852.42
2018-09-17T09:53:15.036Z,98857.30
2018-09-17T09:55:27.270Z,98848.20
2018-09-17T09:57:39.481Z,98849.30
2018-09-17T09:59:51.772Z,98847.36
2018-09-17T10:02:09.663Z,98845.27
2018-09-17T10:04:22.790Z,98840.28
2018-09-17T10:06:35.035Z,98836.24
2018-09-17T10:08:52.783Z,98844.10
2018-09-17T10:11:10.648Z,98839.79
2018-09-17T10:13:28.610Z,98834.41
2018-09-17T10:15:46.617Z,98833.02
2018-09-17T10:19:04.136Z,98830.42
2018-09-17T10:21:16.336Z,98830.31
2018-09-17T10:23:28.555Z,98828.77
2018-09-17T10:25:40.718Z,98831.08
2018-09-17T10:27:52.971Z,98827.19
2018-09-17T10:30:05.511Z,98828.85
2018-09-17T10:32:17.754Z,98831.06
2018-09-17T10:34:29.941Z,98824.56
2018-09-17T10:36:42.219Z,98825.68
2018-09-17T10:38:54.446Z,98820.76
2018-09-17T10:41:06.650Z,98815.27
2018-09-17T10:43:18.880Z,98820.61
2018-09-17T10:45:31.159Z,98814.77
2018-09-17T10:47:43.482Z,98808.50
2018-09-17T10:49:55.679Z,98812.04
2018-09-17T10:52:07.900Z,98821.38
2018-09-17T10:54:20.141Z,98808.84
2018-09-17T10:56:32.327Z,98807.58
2018-09-17T10:58:44.567Z,98806.24
2018-09-17T11:00:56.751Z,98799.11
2018-09-17T11:03:08.971Z,98800.14
2018-09-17T11:05:21.181Z,98799.58
2018-09-17T11:07:33.391Z,98797.45
2018-09-17T11:09:45.623Z,98797.45
2018-09-17T11:11:57.861Z,98792.62
2018-09-17T11:14:10.088Z,98793.06
2018-09-17T11:16:22.271Z,98794.74
2018-09-17T11:18:34.483Z,98797.41
2018-09-17T11:20:47.343Z,98787.15
2018-09-17T11:22:59.508Z,98792.13
2018-09-17T11:25:11.694Z,98789.50
2018-09-17T11:27:23.887Z,98791.30
2018-09-17T11:29:36.090Z,98793.00
2018-09-17T11:31:48.277Z,98788.48
2018-09-17T11:34:00.502Z,98781.81
2018-09-17T11:36:12.696Z,98779.40
2018-09-17T11:38:24.951Z,98781.61
2018-09-17T11:40:37.243Z,98775.16
2018-09-17T11:42:49.467Z,98766.64
2018-09-17T11:45:01.734Z,98774.89
2018-09-17T11:47:13.954Z,98766.83
2018-09-17T11:49:26.235Z,98758.14
2018-09-17T11:51:38.450Z,98763.08
2018-09-17T11:53:50.713Z,98758.87
2018-09-17T11:56:02.895Z,98748.52
2018-09-17T11:58:15.096Z,98747.19
2018-09-17T12:00:33.050Z,98736.88
2018-09-17T12:02:50.955Z,98740.52
2018-09-17T12:05:07.164Z,98741.34
2018-09-17T12:07:25.045Z,98736.86
2018-09-17T12:09:37.231Z,98725.59
2018-09-17T12:11:49.459Z,98731.55
2018-09-17T12:14:01.645Z,98727.55
2018-09-17T12:16:13.881Z,98725.27
2018-09-17T12:18:26.183Z,98721.58
2018-09-17T12:20:38.595Z,98723.94
2018-09-17T12:22:50.837Z,98721.27
2018-09-17T12:25:03.093Z,98720.87
2018-09-17T12:27:15.355Z,98713.44
2018-09-17T12:29:27.532Z,98713.41
2018-09-17T12:31:39.725Z,98717.52
2018-09-17T12:33:52.033Z,98718.14
2018-09-17T12:36:04.184Z,98708.33
2018-09-17T12:38:16.438Z,98704.70
2018-09-17T12:40:28.760Z,98705.27
2018-09-17T12:42:41.027Z,98703.14
2018-09-17T12:44:53.216Z,98696.67
2018-09-17T12:47:05.456Z,98693.86
2018-09-17T12:49:17.642Z,98681.26
2018-09-17T12:51:29.843Z,98690.73
2018-09-17T12:53:42.152Z,98686.91
2018-09-17T12:55:54.343Z,98671.83
2018-09-17T12:58:06.608Z,98674.48
2018-09-17T13:00:18.971Z,98678.09
2018-09-17T13:02:31.161Z,98672.51
2018-09-17T13:04:43.376Z,98673.38
2018-09-17T13:06:55.609Z,98668.05
2018-09-17T13:09:08.967Z,98668.36
2018-09-17T13:11:21.181Z,98664.53
2018-09-17T13:13:33.483Z,98662.26
2018-09-17T13:15:51.603Z,98658.11
2018-09-17T13:18:03.780Z,98655.95
2018-09-17T13:20:15.998Z,98656.01
2018-09-17T13:22:28.203Z,98659.15
2018-09-17T13:24:40.386Z,98656.37
2018-09-17T13:26:52.683Z,98650.23
2018-09-17T13:29:04.954Z,98653.60
2018-09-17T13:31:17.170Z,98653.66
2018-09-17T13:33:29.381Z,98656.31
2018-09-17T13:35:41.659Z,98654.16
2018-09-17T13:37:53.884Z,98646.18
2018-09-17T13:40:06.178Z,98649.19
2018-09-17T13:42:18.384Z,98648.83
2018-09-17T13:44:30.676Z,98645.46
2018-09-17T13:46:42.868Z,98643.97
2018-09-17T13:48:55.112Z,98642.95
2018-09-17T13:51:07.390Z,98644.59
2018-09-17T13:53:19.655Z,98633.27
2018-09-17T13:55:31.840Z,98631.59
2018-09-17T13:57:44.949Z,98631.57
2018-09-17T13:59:57.322Z,98622.55
2018-09-17T14:02:09.891Z,98620.16
2018-09-17T14:04:22.176Z,98619.19
2018-09-17T14:06:34.344Z,98623.43
2018-09-17T14:08:46.604Z,98616.63
2018-09-17T14:10:58.802Z,98625.27
2018-09-17T14:13:11.062Z,98611.80
2018-09-17T14:15:23.301Z,98612.83
2018-09-17T14:17:35.536Z,98609.34
2018-09-17T14:19:47.830Z,98602.33
2018-09-17T14:22:00.024Z,98606.47
2018-09-17T14:24:12.306Z,98608.36
2018-09-17T14:26:25.279Z,98595.72
2018-09-17T14:28:37.501Z,98598.53
2018-09-17T14:30:49.811Z,98594.08
2018-09-17T14:33:07.788Z,98597.66
2018-09-17T14:35:19.986Z,98595.06
2018-09-17T14:37:32.141Z,98590.45
2018-09-17T14:39:44.499Z,98592.77
2018-09-17T14:41:56.722Z,98590.44
2018-09-17T14:44:09.028Z,98588.91
2018-09-17T14:46:21.357Z,98586.76
2018-09-17T14:48:33.579Z,98583.94
2018-09-17T14:50:45.801Z,98580.10
2018-09-17T14:52:57.994Z,98577.96
2018-09-17T14:55:10.229Z,98575.95
2018-09-17T14:57:22.538Z,98572.33
2018-09-17T14:59:34.743Z,98570.74
2018-09-17T15:01:47.009Z,98569.55
2018-09-17T15:03:59.244Z,98571.75
2018-09-17T15:06:11.537Z,98570.97
2018-09-17T15:08:23.907Z,98573.67
2018-09-17T15:10:36.070Z,98570.39
2018-09-17T15:12:48.291Z,98569.06
2018-09-17T15:15:00.536Z,98565.73
2018-09-17T15:17:12.762Z,98567.34
2018-09-17T15:19:25.000Z,98565.65
2018-09-17T15:21:37.280Z,98562.98
2018-09-17T15:23:49.602Z,98558.34
2018-09-17T15:26:01.853Z,98555.67
2018-09-17T15:28:13.999Z,98555.66
2018-09-17T15:30:26.220Z,98553.98
2018-09-17T15:32:38.456Z,98554.14
2018-09-17T15:34:50.689Z,98546.66
2018-09-17T15:37:02.967Z,98548.66
2018-09-17T15:39:15.314Z,98541.19
2018-09-17T15:41:27.657Z,98540.68
2018-09-17T15:43:39.699Z,98540.52
2018-09-17T15:45:51.903Z,98538.48
2018-09-17T15:48:04.171Z,98531.35
2018-09-17T15:50:16.572Z,98534.64
2018-09-17T15:52:28.816Z,98533.14
2018-09-17T15:54:41.025Z,98534.94
2018-09-17T15:56:53.227Z,98529.47
2018-09-17T15:59:05.514Z,98526.34
2018-09-17T16:01:17.711Z,98525.52
2018-09-17T16:03:29.971Z,98527.06
2018-09-17T16:05:42.214Z,98525.42
2018-09-17T16:07:54.453Z,98524.91
2018-09-17T16:10:07.213Z,98522.25
2018-09-17T16:12:19.454Z,98521.13
2018-09-17T16:14:31.667Z,98516.04
2018-09-17T16:16:43.896Z,98522.34
2018-09-17T16:18:56.203Z,98524.06
2018-09-17T16:21:08.442Z,98519.92
2018-09-17T16:23:20.647Z,98525.45
2018-09-17T16:25:32.964Z,98529.67
2018-09-17T16:27:45.218Z,98523.03
2018-09-17T16:29:57.433Z,98525.84
2018-09-17T16:32:09.744Z,98522.68
2018-09-17T16:34:21.989Z,98524.70
2018-09-17T16:36:34.268Z,98527.37
2018-09-17T16:38:47.367Z,98527.56
2018-09-17T16:40:59.633Z,98524.09
2018-09-17T16:43:11.806Z,98521.78
2018-09-17T16:45:24.042Z,98518.02
2018-09-17T16:47:36.250Z,98517.04
2018-09-17T16:49:48.481Z,98515.75
2018-09-17T16:52:00.744Z,98516.92
2018-09-17T16:54:12.955Z,98518.06
2018-09-17T16:56:25.240Z,98512.11
2018-09-17T16:58:37.483Z,98512.94
2018-09-17T17:00:49.738Z,98512.62
2018-09-17T17:03:02.039Z,98510.34
2018-09-17T17:05:14.338Z,98510.09
2018-09-17T17:07:26.563Z,98513.50
2018-09-17T17:09:38.756Z,98515.78
2018-09-17T17:11:51.037Z,98509.88
2018-09-17T17:14:03.242Z,98514.13
2018-09-17T17:16:15.546Z,98511.33
2018-09-17T17:18:27.775Z,98517.33
2018-09-17T17:20:40.023Z,98511.72
2018-09-17T17:22:52.368Z,98512.22
2018-09-17T17:25:04.670Z,98512.20
2018-09-17T17:27:16.978Z,98506.23
2018-09-17T17:29:29.263Z,98509.69
2018-09-17T17:31:41.540Z,98507.50
2018-09-17T17:33:53.902Z,98519.09
2018-09-17T17:36:06.125Z,98515.90
2018-09-17T17:38:18.427Z,98513.06
2018-09-17T17:40:30.845Z,98512.31
2018-09-17T17:42:42.967Z,98509.41
2018-09-17T17:44:55.238Z,98517.57
2018-09-17T17:47:07.538Z,98517.72
2018-09-17T17:49:19.804Z,98516.17
2018-09-17T17:51:32.056Z,98518.55
2018-09-17T17:53:44.280Z,98534.31
2018-09-17T17:55:56.565Z,98525.51
2018-09-17T17:58:08.885Z,98533.19
2018-09-17T18:00:21.064Z,98529.47
2018-09-17T18:02:33.296Z,98536.24
2018-09-17T18:04:45.565Z,98536.63
2018-09-17T18:06:57.774Z,98532.54
2018-09-17T18:09:10.966Z,98540.59
2018-09-17T18:11:23.187Z,98534.44
2018-09-17T18:13:35.563Z,98543.49
2018-09-17T18:15:47.827Z,98544.36
2018-09-17T18:18:00.085Z,98539.08
2018-09-17T18:20:12.385Z,98543.36
2018-09-17T18:22:24.649Z,98545.30
2018-09-17T18:24:36.884Z,98540.97
2018-09-17T18:26:49.226Z,98545.78
2018-09-17T18:29:01.461Z,98543.58
2018-09-17T18:31:13.696Z,98545.28
2018-09-17T18:33:26.069Z,98544.59
2018-09-17T18:35:38.315Z,98545.08
2018-09-17T18:37:50.615Z,98545.36
2018-09-17T18:40:02.906Z,98542.69
2018-09-17T18:42:15.122Z,98549.16
2018-09-17T18:44:27.384Z,98548.55
2018-09-17T18:46:39.665Z,98544.11
2018-09-17T18:48:51.879Z,98554.05
2018-09-17T18:51:04.215Z,98552.95
2018-09-17T18:53:16.419Z,98547.73
2018-09-17T18:55:28.644Z,98551.08
2018-09-17T18:57:40.859Z,98549.50
2018-09-17T18:59:53.189Z,98558.37
2018-09-17T19:02:05.462Z,98565.52
2018-09-17T19:04:17.726Z,98562.41
2018-09-17T19:06:29.985Z,98562.47
2018-09-17T19:08:42.338Z,98565.33
2018-09-17T19:10:54.575Z,98558.73
2018-09-17T19:13:06.822Z,98561.98
2018-09-17T19:15:24.628Z,98564.88
2018-09-17T19:17:41.144Z,98560.46
2018-09-17T19:19:53.729Z,98558.52
2018-09-17T19:22:11.917Z,98560.22
2018-09-17T19:24:24.010Z,98555.27
2018-09-17T19:26:36.289Z,98549.86
2018-09-17T19:28:54.240Z,98554.41
2018-09-17T19:31:06.507Z,98550.19
2018-09-17T19:33:18.759Z,98552.55
2018-09-17T19:35:31.018Z,98551.47
2018-09-17T19:37:48.919Z,98549.16
2018-09-17T19:40:06.745Z,98555.56
2018-09-17T19:42:19.025Z,98559.77
2018-09-17T19:44:31.220Z,98554.09
2018-09-17T19:46:43.416Z,98559.36
2018-09-17T19:48:55.678Z,98547.44
2018-09-17T19:51:13.718Z,98556.33
2018-09-17T19:53:26.183Z,98553.02
2018-09-17T19:55:38.442Z,98561.63
2018-09-17T19:57:56.352Z,98559.34
2018-09-17T20:00:08.638Z,98557.34
2018-09-17T20:02:20.891Z,98562.60
2018-09-17T20:05:39.256Z,98565.81
2018-09-17T20:07:51.486Z,98568.68
2018-09-17T20:10:03.926Z,98561.91
2018-09-17T20:12:16.131Z,98564.98
2018-09-17T20:14:28.370Z,98562.02
2018-09-17T20:16:40.547Z,98559.92
2018-09-17T20:18:52.775Z,98553.49
2018-09-17T20:21:05.235Z,98559.23
2018-09-17T20:23:17.554Z,98556.47
2018-09-17T20:25:29.744Z,98554.81
2018-09-17T20:27:41.987Z,98548.25
2018-09-17T20:29:54.258Z,98549.45
2018-09-17T20:32:06.479Z,98549.70
2018-09-17T20:34:18.781Z,98547.91
2018-09-17T20:36:31.011Z,98551.73
2018-09-17T20:38:43.269Z,98550.07
2018-09-17T20:40:55.571Z,98550.55
2018-09-17T20:43:07.753Z,98552.83
2018-09-17T20:45:20.018Z,98549.13
2018-09-17T20:47:32.260Z,98550.09
2018-09-17T20:49:44.556Z,98549.88
2018-09-17T20:51:56.741Z,98548.56
2018-09-17T20:54:09.014Z,98548.70
2018-09-17T20:56:21.260Z,98551.03
2018-09-17T20:58:33.471Z,98549.02
2018-09-17T21:00:45.799Z,98542.72
2018-09-17T21:02:57.943Z,98542.81
2018-09-17T21:05:10.204Z,98541.88
2018-09-17T21:07:22.495Z,98540.06
2018-09-17T21:09:35.712Z,98541.49
2018-09-17T21:11:47.964Z,98537.83
2018-09-17T21:14:00.174Z,98539.23
2018-09-17T21:16:12.568Z,98537.45
2018-09-17T21:18:24.675Z,98534.59
2018-09-17T21:20:36.887Z,98539.23
2018-09-17T21:22:49.092Z,98535.55
2018-09-17T21:25:01.424Z,98535.90
2018-09-17T21:27:13.635Z,98527.31
2018-09-17T21:29:25.800Z,98530.55
2018-09-17T21:31:38.021Z,98528.99
2018-09-17T21:33:50.547Z,98523.98
2018-09-17T21:36:02.736Z,98524.21
2018-09-17T21:38:14.955Z,98520.04
2018-09-17T21:40:27.232Z,98519.18
2018-09-17T21:42:39.461Z,98520.59
2018-09-17T21:44:51.723Z,98519.99
2018-09-17T21:47:04.003Z,98522.26
2018-09-17T21:49:16.232Z,98520.95
2018-09-17T21:51:28.454Z,98529.52
2018-09-17T21:53:40.716Z,98525.55
2018-09-17T21:55:52.942Z,98528.40
2018-09-17T21:58:05.228Z,98525.97
2018-09-17T22:00:17.628Z,98527.98
2018-09-17T22:02:29.870Z,98523.92
2018-09-17T22:04:42.091Z,98523.19
2018-09-17T22:06:54.304Z,98522.84
2018-09-17T22:09:07.165Z,98526.89
2018-09-17T22:11:19.375Z,98524.28
2018-09-17T22:13:31.609Z,98522.75
2018-09-17T22:15:43.858Z,98517.03
2018-09-17T22:17:56.082Z,98524.98
2018-09-17T22:20:08.326Z,98514.03
2018-09-17T22:22:20.666Z,98515.69
2018-09-17T22:24:32.900Z,98514.83
2018-09-17T22:26:45.159Z,98512.69
2018-09-17T22:28:57.468Z,98509.77
2018-09-17T22:31:09.638Z,98511.16
2018-09-17T22:33:21.870Z,98515.95
2018-09-17T22:35:34.067Z,98520.91
2018-09-17T22:37:46.278Z,98518.56
2018-09-17T22:39:58.545Z,98516.95
2018-09-17T22:42:10.805Z,98518.25
2018-09-17T22:44:22.983Z,98517.44
2018-09-17T22:46:35.218Z,98515.04
2018-09-17T22:48:47.379Z,98516.39
2018-09-17T22:50:59.583Z,98516.39
2018-09-17T22:53:11.810Z,98509.98
2018-09-17T22:55:24.023Z,98504.02
2018-09-17T22:57:36.211Z,98506.41
2018-09-17T22:59:48.477Z,98507.16
2018-09-17T23:02:00.701Z,98508.94
2018-09-17T23:04:12.933Z,98505.93
2018-09-17T23:06:25.149Z,98507.41
2018-09-17T23:08:37.366Z,98511.11
2018-09-17T23:10:49.599Z,98510.50
2018-09-17T23:13:01.809Z,98508.11
2018-09-17T23:15:14.093Z,98510.02
2018-09-17T23:17:26.331Z,98506.09
2018-09-17T23:19:38.533Z,98504.88
2018-09-17T23:21:51.001Z,98506.66
2018-09-17T23:24:03.255Z,98499.73
2018-09-17T23:26:15.470Z,98496.88
2018-09-17T23:28:27.758Z,98497.71
2018-09-17T23:30:39.955Z,98497.59
2018-09-17T23:32:52.165Z,98498.88
2018-09-17T23:35:04.370Z,98495.66
2018-09-17T23:37:16.833Z,98498.22
2018-09-17T23:39:29.050Z,98499.53
2018-09-17T23:41:41.264Z,98506.89
2018-09-17T23:43:53.514Z,98505.35
2018-09-17T23:46:05.791Z,98507.56
2018-09-17T23:48:17.950Z,98505.78
2018-09-17T23:50:30.142Z,98504.06
2018-09-17T23:52:42.378Z,98504.14
2018-09-17T23:54:54.643Z,98497.69
2018-09-17T23:57:06.850Z,98493.69
2018-09-17T23:59:19.068Z,98498.44
